Ruth, North Carolina
Current Conditions -  °F | °C
As of 10:55 AM on Wednesday 26 Nov 2014 (Local Time) from KFQD Reporting Station
Overcast Overcast  
Wind Chill: 45°   Ceiling: 11000
Heat Index: 47°   Visibility: 10mi
Dew Point: 44°   Wind: 5mph
Humidity: 88%   Direction: 300°WNW
Pressure: 30.02"   Gusts: NA
Location:  35.3722°N, 82.0134°W
Report Text: KFQD 261555Z AUTO 30004KT 10SM SCT008 OVC110 08/06 A3002 RMK AO2 P0001 T00830064
Loading
Personal Weather Stations






























Interactive Weather Map New forecast layout! Learn more

10-Day Weather Forecast

Advertisements
Track Severe Weather on mobile